Accueil
METAR-TAF:

METAR-TAF

Aéroports :

La Paz, Mexique

latitude: 24-04N, longitude: 110-22W, altitude: 21 m

Observation

Le bulletin a été fait il y a 2 heures et 26 minutes, à 04:40 UTC
Vent 9 kt de sud/sud-est
Température 24°C
Humidité 61%
Pression 1013 hPa
Visibilité: 16.1 km
Ciel clair

METAR: MMLP 270440Z 16009KT 10SM SKC 24/16 A2992 RMK ISOL AC HZ

Heure: 01:06 (07:06 UTC)

Prévision

Le bulletin a été fait il y a 2 heures et 38 minutes, à 04:28 UTC
Prévision valable du 27 à 06 UTC au 28 à 06 UTC
Vent 5 kt de sud
Visibilité: 10 km
Ciel clair
A partir de 27 à 1600 UTC
Vent 10 kt de nord
Visibilité: 10 km
Nuages épars à une hauteur de 25000 ft
A partir de 28 à 0300 UTC
Vent 5 kt de sud
Visibilité: 10 km
Nuages épars à une hauteur de 10000 ft
Nuages épars à une hauteur de 25000 ft

TAF: MMLP 270428Z 2706/2806 18005KT P6SM SKC FM271600 36010KT P6SM SCT250 FM280300 18005KT P6SM SCT100 SCT250

Observations et prévisions météorologiques de plus de 4000 aéroports (messages METAR et TAF).

Les stations disponibles sont représentées par des disques jaunes et rouges sur la carte.

Passer la souris dessus pour voir le nom de la station.

Cliquer dessus pour voir les observations et prévisions météorologiques.

Pour changer de carte: cliquez sur les boutons verts avec une croix noire pour zoomer, sur le bouton vert avec un tiret pour effectuer un zoom arrière, ou sur les flèches vertes pour les cartes adjacentes.


METAR-TAF: